Terminal Aerodrome Forecast
Issued by NWS Raleigh/Durham, NC

Home | Current Version | Previous Version | Text Only | Print | Product List | Glossary On
Versions: 1 2 3 4 5 6 7 8 9 10 11 12 13 14 15 16 17 18 19 20 21 22
000
FTUS42 KRAH 011344 AAB
TAFFAY
TAF AMD
KFAY 011344Z 0114/0212 14007KT P6SM SCT008 OVC035
      TEMPO 0114/0115 BKN008
     FM011500 15009KT P6SM VCSH SCT016 BKN035
      TEMPO 0116/0118 VRB15G25KT 2SM TSRA BR SCT008 OVC020CB
     FM011800 18008G16KT P6SM VCSH SCT020 BKN060
     FM012200 19009KT P6SM SCT020 BKN080
     FM020900 22007KT P6SM BKN007 BKN250=

USA.gov is the U.S. government's official web portal to all federal, state and local government web resources and services.